Observation data for Turkey on 12/09/2018      Previous  Date       Current Mesonet Observations  Soil Data  Daily Summary Page  Observations in Plain Language
KTUR 090600Z 30005KT M02/M06 A3031 RMK A01 T10181056  RH  076%=      5-min Rain = 0
KTUR 090605Z 31005KT M02/M05 A3031 RMK A01 T10201054  RH  078%=      5-min Rain = 0
KTUR 090610Z 31005KT M02/M05 A3031 RMK A01 T10231053  RH  080%=      5-min Rain = 0
KTUR 090615Z 31006KT M02/M05 A3031 RMK A01 T10221050  RH  082%=      5-min Rain = 0
KTUR 090620Z 30006KT M02/M05 A3031 RMK A01 T10221050  RH  082%=      5-min Rain = 0
KTUR 090625Z 30006KT M02/M05 A3031 RMK A01 T10231050  RH  083%=      5-min Rain = 0
KTUR 090630Z 29005KT M03/M05 A3031 RMK A01 T10251051  RH  083%=      5-min Rain = 0
KTUR 090635Z 29006KT M03/M05 A3031 RMK A01 T10251050  RH  083%=      5-min Rain = 0
KTUR 090640Z 29006KT M03/M05 A3032 RMK A01 T10271052  RH  084%=      5-min Rain = 0
KTUR 090645Z 29007KT M03/M05 A3032 RMK A01 T10271052  RH  084%=      5-min Rain = 0
KTUR 090650Z 29007KT M03/M05 A3031 RMK A01 T10261054  RH  082%=      5-min Rain = 0
KTUR 090655Z 29007KT M03/M06 A3032 RMK A01 T10261055  RH  082%=      5-min Rain = 0
KTUR 090700Z 29007KT M03/M06 A3032 RMK A01 T10261056  RH  081%=      5-min Rain = 0
KTUR 090705Z 29007KT M03/M06 A3031 RMK A01 T10291058  RH  081%=      5-min Rain = 0
KTUR 090710Z 29007KT M03/M06 A3031 RMK A01 T10291058  RH  081%=      5-min Rain = 0
KTUR 090715Z 29007KT M03/M06 A3031 RMK A01 T10291058  RH  081%=      5-min Rain = 0
KTUR 090720Z 29007KT M03/M06 A3031 RMK A01 T10281057  RH  081%=      5-min Rain = 0
KTUR 090725Z 29007KT M03/M06 A3031 RMK A01 T10281057  RH  081%=      5-min Rain = 0
KTUR 090730Z 30007KT M03/M06 A3031 RMK A01 T10261057  RH  081%=      5-min Rain = 0
KTUR 090735Z 30007KT M03/M06 A3031 RMK A01 T10261056  RH  081%=      5-min Rain = 0
KTUR 090740Z 30006KT M03/M06 A3031 RMK A01 T10271057  RH  081%=      5-min Rain = 0
KTUR 090745Z 30006KT M03/M06 A3031 RMK A01 T10281057  RH  081%=      5-min Rain = 0
KTUR 090750Z 30007KT M03/M06 A3031 RMK A01 T10261055  RH  081%=      5-min Rain = 0
KTUR 090755Z 29006KT M02/M05 A3031 RMK A01 T10231054  RH  080%=      5-min Rain = 0
KTUR 090800Z 30007KT M02/M05 A3031 RMK A01 T10231054  RH  080%=      5-min Rain = 0
KTUR 090805Z 30006KT M02/M06 A3031 RMK A01 T10231055  RH  080%=      5-min Rain = 0
KTUR 090810Z 30006KT M02/M06 A3031 RMK A01 T10241055  RH  080%=      5-min Rain = 0
KTUR 090815Z 30006KT M02/M06 A3031 RMK A01 T10241055  RH  080%=      5-min Rain = 0
KTUR 090820Z 31006KT M02/M06 A3031 RMK A01 T10231055  RH  080%=      5-min Rain = 0
KTUR 090825Z 30006KT M02/M06 A3031 RMK A01 T10231056  RH  079%=      5-min Rain = 0
KTUR 090830Z 30006KT M03/M06 A3031 RMK A01 T10251057  RH  080%=      5-min Rain = 0
KTUR 090835Z 30006KT M02/M06 A3031 RMK A01 T10241056  RH  079%=      5-min Rain = 0
KTUR 090840Z 30006KT M03/M06 A3031 RMK A01 T10261057  RH  080%=      5-min Rain = 0
KTUR 090845Z 30007KT M03/M06 A3031 RMK A01 T10281057  RH  081%=      5-min Rain = 0
KTUR 090850Z 30007KT M03/M06 A3031 RMK A01 T10311059  RH  082%=      5-min Rain = 0
KTUR 090855Z 30007KT M03/M06 A3031 RMK A01 T10311058  RH  083%=      5-min Rain = 0
KTUR 090900Z 30007KT M03/M06 A3031 RMK A01 T10311058  RH  083%=      5-min Rain = 0
KTUR 090905Z 30006KT M03/M06 A3031 RMK A01 T10321059  RH  083%=      5-min Rain = 0
KTUR 090910Z 30006KT M03/M06 A3031 RMK A01 T10321059  RH  083%=      5-min Rain = 0
KTUR 090915Z 30006KT M03/M06 A3031 RMK A01 T10331059  RH  083%=      5-min Rain = 0
KTUR 090920Z 30006KT M03/M06 A3031 RMK A01 T10341060  RH  083%=      5-min Rain = 0
KTUR 090925Z 30006KT M04/M06 A3031 RMK A01 T10361061  RH  084%=      5-min Rain = 0
KTUR 090930Z 30006KT M04/M06 A3031 RMK A01 T10361061  RH  084%=      5-min Rain = 0
KTUR 090935Z 30006KT M04/M06 A3031 RMK A01 T10371061  RH  084%=      5-min Rain = 0
KTUR 090940Z 30006KT M04/M06 A3031 RMK A01 T10381062  RH  084%=      5-min Rain = 0
KTUR 090945Z 30006KT M04/M06 A3031 RMK A01 T10391062  RH  085%=      5-min Rain = 0
KTUR 090950Z 29007KT M04/M06 A3031 RMK A01 T10401062  RH  086%=      5-min Rain = 0
KTUR 090955Z 29007KT M04/M06 A3031 RMK A01 T10391062  RH  085%=      5-min Rain = 0
KTUR 091000Z 29007KT M04/M06 A3031 RMK A01 T10371061  RH  084%=      5-min Rain = 0
KTUR 091005Z 29007KT M04/M06 A3031 RMK A01 T10371060  RH  085%=      5-min Rain = 0
KTUR 091010Z 29007KT M04/M06 A3031 RMK A01 T10371061  RH  085%=      5-min Rain = 0
KTUR 091015Z 29008KT M04/M06 A3031 RMK A01 T10371061  RH  084%=      5-min Rain = 0
KTUR 091020Z 29008KT M04/M06 A3031 RMK A01 T10351060  RH  084%=      5-min Rain = 0
KTUR 091025Z 29008KT M04/M06 A3031 RMK A01 T10361062  RH  083%=      5-min Rain = 0
KTUR 091030Z 29007KT M04/M06 A3031 RMK A01 T10361062  RH  083%=      5-min Rain = 0
KTUR 091035Z 29007KT M04/M06 A3031 RMK A01 T10361062  RH  083%=      5-min Rain = 0
KTUR 091040Z 30006KT M04/M06 A3031 RMK A01 T10351062  RH  083%=      5-min Rain = 0
KTUR 091045Z 30006KT M04/M06 A3031 RMK A01 T10361062  RH  083%=      5-min Rain = 0
KTUR 091050Z 30005KT M04/M06 A3031 RMK A01 T10371062  RH  084%=      5-min Rain = 0
KTUR 091055Z 30005KT M04/M06 A3031 RMK A01 T10411064  RH  085%=      5-min Rain = 0
KTUR 091100Z 30005KT M04/M06 A3031 RMK A01 T10431064  RH  086%=      5-min Rain = 0
KTUR 091105Z 29006KT M04/M06 A3031 RMK A01 T10441064  RH  087%=      5-min Rain = 0
KTUR 091110Z 29007KT M05/M06 A3031 RMK A01 T10451063  RH  088%=      5-min Rain = 0
KTUR 091115Z 30007KT M04/M06 A3031 RMK A01 T10411061  RH  087%=      5-min Rain = 0
KTUR 091120Z 30006KT M04/M06 A3031 RMK A01 T10391060  RH  086%=      5-min Rain = 0
KTUR 091125Z 30006KT M04/M06 A3031 RMK A01 T10381059  RH  086%=      5-min Rain = 0
KTUR 091130Z 29006KT M04/M06 A3031 RMK A01 T10381060  RH  086%=      5-min Rain = 0
KTUR 091135Z 30006KT M04/M06 A3032 RMK A01 T10411062  RH  087%=      5-min Rain = 0
KTUR 091140Z 30006KT M04/M06 A3032 RMK A01 T10421061  RH  088%=      5-min Rain = 0
KTUR 091145Z 30006KT M04/M06 A3032 RMK A01 T10431061  RH  088%=      5-min Rain = 0
KTUR 091150Z 30007KT M04/M06 A3032 RMK A01 T10421060  RH  088%=      5-min Rain = 0
KTUR 091155Z 29007KT M04/M06 A3032 RMK A01 T10411059  RH  089%=      5-min Rain = 0
KTUR 091200Z 29007KT M04/M06 A3032 RMK A01 T10401058  RH  088%=      5-min Rain = 0
KTUR 091205Z 30007KT M04/M06 A3032 RMK A01 T10391057  RH  088%=      5-min Rain = 0
KTUR 091210Z 30006KT M04/M06 A3032 RMK A01 T10391057  RH  088%=      5-min Rain = 0
KTUR 091215Z 29006KT M04/M06 A3032 RMK A01 T10401058  RH  088%=      5-min Rain = 0
KTUR 091220Z 29006KT M04/M06 A3033 RMK A01 T10411057  RH  089%=      5-min Rain = 0
KTUR 091225Z 29006KT M04/M06 A3033 RMK A01 T10391055  RH  089%=      5-min Rain = 0
KTUR 091230Z 30006KT M04/M06 A3033 RMK A01 T10381055  RH  089%=      5-min Rain = 0
KTUR 091235Z 30006KT M04/M06 A3033 RMK A01 T10391057  RH  089%=      5-min Rain = 0
KTUR 091240Z 30006KT M04/M06 A3033 RMK A01 T10401057  RH  089%=      5-min Rain = 0
KTUR 091245Z 30006KT M04/M06 A3033 RMK A01 T10411057  RH  089%=      5-min Rain = 0
KTUR 091250Z 30007KT M04/M06 A3033 RMK A01 T10431059  RH  090%=      5-min Rain = 0
KTUR 091255Z 29007KT M04/M06 A3033 RMK A01 T10441059  RH  090%=      5-min Rain = 0
KTUR 091300Z 29007KT M04/M06 A3034 RMK A01 T10441059  RH  090%=      5-min Rain = 0
KTUR 091305Z 30008KT M04/M06 A3034 RMK A01 T10431058  RH  090%=      5-min Rain = 0
KTUR 091310Z 30007KT M04/M06 A3034 RMK A01 T10411057  RH  089%=      5-min Rain = 0
KTUR 091315Z 30007KT M04/M06 A3034 RMK A01 T10391057  RH  089%=      5-min Rain = 0
KTUR 091320Z 30007KT M04/M06 A3034 RMK A01 T10381057  RH  088%=      5-min Rain = 0
KTUR 091325Z 30007KT M04/M06 A3034 RMK A01 T10381056  RH  088%=      5-min Rain = 0
KTUR 091330Z 30007KT M04/M06 A3035 RMK A01 T10381057  RH  088%=      5-min Rain = 0
KTUR 091335Z 30007KT M04/M06 A3035 RMK A01 T10411060  RH  088%=      5-min Rain = 0
KTUR 091340Z 30007KT M04/M06 A3035 RMK A01 T10391058  RH  088%=      5-min Rain = 0
KTUR 091345Z 30006KT M04/M06 A3035 RMK A01 T10391058  RH  088%=      5-min Rain = 0
KTUR 091350Z 30006KT M04/M06 A3035 RMK A01 T10371057  RH  087%=      5-min Rain = 0
KTUR 091355Z 30006KT M04/M06 A3036 RMK A01 T10381059  RH  087%=      5-min Rain = 0
KTUR 091400Z 30005KT M04/M06 A3036 RMK A01 T10391058  RH  088%=      5-min Rain = 0
KTUR 091405Z 30005KT M04/M06 A3036 RMK A01 T10401057  RH  088%=      5-min Rain = 0
KTUR 091410Z 30005KT M04/M06 A3036 RMK A01 T10391057  RH  089%=      5-min Rain = 0
KTUR 091415Z 30005KT M04/M06 A3036 RMK A01 T10381056  RH  089%=      5-min Rain = 0
KTUR 091420Z 30004KT M04/M05 A3037 RMK A01 T10351054  RH  088%=      5-min Rain = 0
KTUR 091425Z 30004KT M03/M05 A3036 RMK A01 T10311051  RH  087%=      5-min Rain = 0
KTUR 091430Z 29004KT M03/M05 A3037 RMK A01 T10271048  RH  086%=      5-min Rain = 0
KTUR 091435Z 30004KT M02/M05 A3037 RMK A01 T10231047  RH  085%=      5-min Rain = 0
KTUR 091440Z 30003KT M02/M05 A3037 RMK A01 T10201046  RH  083%=      5-min Rain = 0
KTUR 091445Z 29003KT M02/M05 A3037 RMK A01 T10181046  RH  082%=      5-min Rain = 0
KTUR 091450Z 28003KT M02/M05 A3037 RMK A01 T10161045  RH  081%=      5-min Rain = 0
KTUR 091455Z 28004KT M01/M04 A3037 RMK A01 T10131044  RH  080%=      5-min Rain = 0
KTUR 091500Z 29004KT M01/M05 A3037 RMK A01 T10111045  RH  079%=      5-min Rain = 0
KTUR 091505Z 29005KT M01/M04 A3038 RMK A01 T10071043  RH  078%=      5-min Rain = 0
KTUR 091510Z 30004KT M00/M04 A3038 RMK A01 T10041043  RH  076%=      5-min Rain = 0
KTUR 091515Z 29005KT M00/M04 A3038 RMK A01 T10011043  RH  074%=      5-min Rain = 0
KTUR 091520Z 29004KT 00/M04 A3038 RMK A01 T00011044  RH  073%=      5-min Rain = 0
KTUR 091525Z 29005KT 00/05 A3039 RMK A01 T00000-47  RH  071%=      5-min Rain = 0
KTUR 091530Z 29004KT 00/M05 A3039 RMK A01 T00031046  RH  070%=      5-min Rain = 0
KTUR 091535Z 30004KT 01/M05 A3039 RMK A01 T00061047  RH  068%=      5-min Rain = 0
KTUR 091540Z 29005KT 01/M05 A3039 RMK A01 T00081048  RH  067%=      5-min Rain = 0
KTUR 091545Z 30005KT 01/M05 A3039 RMK A01 T00101050  RH  065%=      5-min Rain = 0
KTUR 091550Z 30005KT 01/M05 A3039 RMK A01 T00111050  RH  065%=      5-min Rain = 0
KTUR 091555Z 30005KT 01/M05 A304 RMK A01 T00121048  RH  065%=      5-min Rain = 0
KTUR 091600Z 30005KT 01/M05 A304 RMK A01 T00131046  RH  066%=      5-min Rain = 0
KTUR 091605Z 30005KT 01/M05 A304 RMK A01 T00141050  RH  063%=      5-min Rain = 0
KTUR 091610Z 30005KT 02/M05 A304 RMK A01 T00161050  RH  062%=      5-min Rain = 0
KTUR 091615Z 29005KT 02/M05 A304 RMK A01 T00191049  RH  061%=      5-min Rain = 0
KTUR 091620Z 29006KT 02/M06 A304 RMK A01 T00201055  RH  058%=      5-min Rain = 0
KTUR 091625Z 30005KT 02/M05 A304 RMK A01 T00221053  RH  058%=      5-min Rain = 0
KTUR 091630Z 30006KT 02/M06 A304 RMK A01 T00241055  RH  057%=      5-min Rain = 0
KTUR 091635Z 30005KT 03/M05 A304 RMK A01 T00251051  RH  058%=      5-min Rain = 0
KTUR 091640Z 30006KT 03/M05 A304 RMK A01 T00261052  RH  057%=      5-min Rain = 0
KTUR 091645Z 31006KT 03/M05 A304 RMK A01 T00261053  RH  057%=      5-min Rain = 0
KTUR 091650Z 31006KT 03/M05 A3039 RMK A01 T00271047  RH  059%=      5-min Rain = 0
KTUR 091655Z 31005KT 03/M04 A304 RMK A01 T00291044  RH  059%=      5-min Rain = 0
KTUR 091700Z 31006KT 03/M05 A3039 RMK A01 T00311047  RH  057%=      5-min Rain = 0
KTUR 091705Z 31004KT 03/M05 A3039 RMK A01 T00331046  RH  057%=      5-min Rain = 0
KTUR 091710Z 30005KT 03/M05 A3039 RMK A01 T00331050  RH  055%=      5-min Rain = 0
KTUR 091715Z 32006KT 04/M05 A3039 RMK A01 T00351049  RH  055%=      5-min Rain = 0
KTUR 091720Z 32006KT 04/M05 A3039 RMK A01 T00361047  RH  055%=      5-min Rain = 0
KTUR 091725Z 32005KT 04/M04 A3039 RMK A01 T00371042  RH  057%=      5-min Rain = 0
KTUR 091730Z 31006KT 04/M05 A3039 RMK A01 T00391050  RH  053%=      5-min Rain = 0
KTUR 091735Z 31006KT 04/M05 A3039 RMK A01 T00401051  RH  052%=      5-min Rain = 0
KTUR 091740Z 30005KT 04/M05 A3038 RMK A01 T00421048  RH  053%=      5-min Rain = 0
KTUR 091745Z 32004KT 04/M04 A3038 RMK A01 T00441044  RH  053%=      5-min Rain = 0
KTUR 091750Z 32005KT 05/M05 A3038 RMK A01 T00451050  RH  050%=      5-min Rain = 0
KTUR 091755Z 30005KT 05/M05 A3038 RMK A01 T00461047  RH  052%=      5-min Rain = 0
KTUR 091800Z 32006KT 05/M04 A3038 RMK A01 T00471043  RH  053%=      5-min Rain = 0
KTUR 091805Z 31005KT 05/M04 A3038 RMK A01 T00491043  RH  052%=      5-min Rain = 0
KTUR 091810Z 33003KT 05/M05 A3038 RMK A01 T00481052  RH  049%=      5-min Rain = 0
KTUR 091815Z 32005KT 05/M04 A3037 RMK A01 T00521043  RH  051%=      5-min Rain = 0
KTUR 091820Z 29003KT 05/M05 A3037 RMK A01 T00501050  RH  049%=      5-min Rain = 0
KTUR 091825Z 32005KT 05/M05 A3037 RMK A01 T00511050  RH  049%=      5-min Rain = 0
KTUR 091830Z 34002KT 05/M05 A3037 RMK A01 T00511054  RH  047%=      5-min Rain = 0
KTUR 091835Z 33001G6KT 06/M05 A3036 RMK A01 T00561051  RH  046%=      5-min Rain = 0
KTUR 091840Z 30003KT 06/M05 A3036 RMK A01 T00561053  RH  046%=      5-min Rain = 0
KTUR 091845Z 33004KT 06/M05 A3036 RMK A01 T00591048  RH  047%=      5-min Rain = 0
KTUR 091850Z 29004KT 06/M05 A3036 RMK A01 T00581053  RH  045%=      5-min Rain = 0
KTUR 091855Z 28002KT 06/M06 A3036 RMK A01 T00601060  RH  042%=      5-min Rain = 0
KTUR 091900Z 32003KT 06/M06 A3035 RMK A01 T00611055  RH  044%=      5-min Rain = 0
KTUR 091905Z 32003KT 06/M05 A3035 RMK A01 T00621052  RH  044%=      5-min Rain = 0
KTUR 091910Z 29002KT 06/M05 A3035 RMK A01 T00611050  RH  045%=      5-min Rain = 0
KTUR 091915Z 34001KT 06/M05 A3035 RMK A01 T00641054  RH  043%=      5-min Rain = 0
KTUR 091920Z 26001KT 07/M05 A3034 RMK A01 T00691048  RH  043%=      5-min Rain = 0
KTUR 091925Z 28003KT 07/M05 A3034 RMK A01 T00681051  RH  043%=      5-min Rain = 0
KTUR 091930Z 31003KT 07/M06 A3034 RMK A01 T00671058  RH  041%=      5-min Rain = 0
KTUR 091935Z 31003KT 07/M05 A3034 RMK A01 T00671053  RH  042%=      5-min Rain = 0
KTUR 091940Z 25001KT 07/M06 A3034 RMK A01 T00711058  RH  040%=      5-min Rain = 0
KTUR 091945Z 33002KT 08/M06 A3034 RMK A01 T00751057  RH  039%=      5-min Rain = 0
KTUR 091950Z 27003KT 07/M06 A3034 RMK A01 T00721061  RH  039%=      5-min Rain = 0
KTUR 091955Z 29002KT 07/M07 A3034 RMK A01 T00721068  RH  037%=      5-min Rain = 0
KTUR 092000Z 32003KT 07/M06 A3034 RMK A01 T00731058  RH  039%=      5-min Rain = 0
KTUR 092005Z 07000KT 08/M05 A3034 RMK A01 T00781054  RH  039%=      5-min Rain = 0
KTUR 092010Z 29003KT 08/M05 A3033 RMK A01 T00811049  RH  040%=      5-min Rain = 0
KTUR 092015Z 33004KT 08/M07 A3033 RMK A01 T00771068  RH  035%=      5-min Rain = 0
KTUR 092020Z 33003KT 08/M08 A3033 RMK A01 T00761075  RH  034%=      5-min Rain = 0
KTUR 092025Z 02003KT 07/M07 A3033 RMK A01 T00741072  RH  035%=      5-min Rain = 0
KTUR 092030Z 06001KT 08/M07 A3032 RMK A01 T00761066  RH  036%=      5-min Rain = 0
KTUR 092035Z 29002KT 08/M07 A3032 RMK A01 T00791073  RH  034%=      5-min Rain = 0
KTUR 092040Z 29002KT 08/M09 A3032 RMK A01 T00781085  RH  031%=      5-min Rain = 0
KTUR 092045Z 35002KT 08/M08 A3033 RMK A01 T00791082  RH  031%=      5-min Rain = 0
KTUR 092050Z 32002KT 08/M08 A3033 RMK A01 T00821082  RH  031%=      5-min Rain = 0
KTUR 092055Z 26001KT 09/M07 A3033 RMK A01 T00851074  RH  032%=      5-min Rain = 0
KTUR 092100Z 28005KT 09/M07 A3033 RMK A01 T00851071  RH  033%=      5-min Rain = 0
KTUR 092105Z 29003KT 08/M07 A3033 RMK A01 T00811072  RH  034%=      5-min Rain = 0
KTUR 092110Z 29003KT 08/M08 A3033 RMK A01 T00811078  RH  032%=      5-min Rain = 0
KTUR 092115Z 31002KT 08/M07 A3033 RMK A01 T00831073  RH  033%=      5-min Rain = 0
KTUR 092120Z 33003KT 08/M07 A3033 RMK A01 T00841069  RH  033%=      5-min Rain = 0
KTUR 092125Z 34002KT 08/M07 A3033 RMK A01 T00821071  RH  033%=      5-min Rain = 0
KTUR 092130Z 34000KT 08/M08 A3033 RMK A01 T00841075  RH  032%=      5-min Rain = 0
KTUR 092135Z 28003KT 09/M06 A3033 RMK A01 T00861060  RH  035%=      5-min Rain = 0
KTUR 092140Z 22002KT 08/M06 A3033 RMK A01 T00841064  RH  035%=      5-min Rain = 0
KTUR 092145Z 27002KT 09/M06 A3033 RMK A01 T00851061  RH  035%=      5-min Rain = 0
KTUR 092150Z 24002KT 09/M06 A3033 RMK A01 T00861061  RH  035%=      5-min Rain = 0
KTUR 092155Z 29000KT 09/M06 A3033 RMK A01 T00901062  RH  034%=      5-min Rain = 0
KTUR 092200Z 28000KT 09/M06 A3033 RMK A01 T00881064  RH  034%=      5-min Rain = 0
KTUR 092205Z 01000KT 09/M06 A3033 RMK A01 T00911062  RH  034%=      5-min Rain = 0
KTUR 092210Z 24001KT 09/M06 A3033 RMK A01 T00941058  RH  034%=      5-min Rain = 0
KTUR 092215Z 20003KT 09/M05 A3033 RMK A01 T00891047  RH  038%=      5-min Rain = 0
KTUR 092220Z 23003KT 09/M05 A3033 RMK A01 T00851052  RH  038%=      5-min Rain = 0
KTUR 092225Z 22003KT 08/M05 A3033 RMK A01 T00841047  RH  040%=      5-min Rain = 0
KTUR 092230Z 21002KT 08/M05 A3033 RMK A01 T00841052  RH  038%=      5-min Rain = 0
KTUR 092235Z 24002KT 09/M05 A3032 RMK A01 T00851049  RH  039%=      5-min Rain = 0
KTUR 092240Z 23001KT 09/M05 A3032 RMK A01 T00861048  RH  039%=      5-min Rain = 0
KTUR 092245Z 23001KT 09/M05 A3032 RMK A01 T00891053  RH  037%=      5-min Rain = 0
KTUR 092250Z 23001KT 09/M06 A3033 RMK A01 T00881058  RH  035%=      5-min Rain = 0
KTUR 092255Z 22001KT 09/M06 A3033 RMK A01 T00891055  RH  036%=      5-min Rain = 0
KTUR 092300Z 19003KT 08/M05 A3032 RMK A01 T00831046  RH  040%=      5-min Rain = 0
KTUR 092305Z 17003KT 08/M03 A3032 RMK A01 T00791030  RH  046%=      5-min Rain = 0
KTUR 092310Z 18003KT 08/M03 A3032 RMK A01 T00761033  RH  046%=      5-min Rain = 0
KTUR 092315Z 18003KT 07/M03 A3032 RMK A01 T00731032  RH  048%=      5-min Rain = 0
KTUR 092320Z 18003KT 07/M03 A3032 RMK A01 T00711027  RH  051%=      5-min Rain = 0
KTUR 092325Z 19003KT 07/M03 A3032 RMK A01 T00691032  RH  049%=      5-min Rain = 0
KTUR 092330Z 19004KT 07/M04 A3032 RMK A01 T00661043  RH  046%=      5-min Rain = 0
KTUR 092335Z 19004KT 06/M04 A3032 RMK A01 T00621040  RH  048%=      5-min Rain = 0
KTUR 092340Z 19003KT 06/M04 A3032 RMK A01 T00581036  RH  051%=      5-min Rain = 0
KTUR 092345Z 19003KT 06/M04 A3032 RMK A01 T00581037  RH  051%=      5-min Rain = 0
KTUR 092350Z 19004KT 06/M04 A3032 RMK A01 T00591036  RH  051%=      5-min Rain = 0
KTUR 092355Z 19004KT 06/M04 A3032 RMK A01 T00581037  RH  051%=      5-min Rain = 0
KTUR 100000Z 20004KT 06/M03 A3033 RMK A01 T00561034  RH  053%=      5-min Rain = 0
KTUR 100005Z 20004KT 05/M03 A3033 RMK A01 T00541025  RH  058%=      5-min Rain = 0
KTUR 100010Z 20004KT 05/M02 A3033 RMK A01 T00521021  RH  060%=      5-min Rain = 0
KTUR 100015Z 20005KT 05/M02 A3033 RMK A01 T00501021  RH  061%=      5-min Rain = 0
KTUR 100020Z 20005KT 05/M02 A3033 RMK A01 T00451022  RH  063%=      5-min Rain = 0
KTUR 100025Z 21006KT 04/M02 A3034 RMK A01 T00401022  RH  064%=      5-min Rain = 0
KTUR 100030Z 21006KT 03/M02 A3033 RMK A01 T00341021  RH  068%=      5-min Rain = 0
KTUR 100035Z 21007KT 03/M02 A3033 RMK A01 T00301018  RH  071%=      5-min Rain = 0
KTUR 100040Z 21007KT 03/M02 A3034 RMK A01 T00271018  RH  073%=      5-min Rain = 0
KTUR 100045Z 23008KT 03/M02 A3034 RMK A01 T00261017  RH  074%=      5-min Rain = 0
KTUR 100050Z 23008KT 03/M02 A3034 RMK A01 T00261016  RH  075%=      5-min Rain = 0
KTUR 100055Z 23008KT 03/M02 A3034 RMK A01 T00251015  RH  075%=      5-min Rain = 0
KTUR 100100Z 24008KT 03/M02 A3034 RMK A01 T00261015  RH  075%=      5-min Rain = 0
KTUR 100105Z 23008KT 03/M01 A3034 RMK A01 T00251014  RH  076%=      5-min Rain = 0
KTUR 100110Z 23009KT 03/M01 A3034 RMK A01 T00271012  RH  076%=      5-min Rain = 0
KTUR 100115Z 24008KT 03/M01 A3035 RMK A01 T00261012  RH  077%=      5-min Rain = 0
KTUR 100120Z 24008KT 02/M01 A3035 RMK A01 T00241012  RH  078%=      5-min Rain = 0
KTUR 100125Z 24008KT 02/M01 A3035 RMK A01 T00221013  RH  079%=      5-min Rain = 0
KTUR 100130Z 24009KT 02/M01 A3034 RMK A01 T00201013  RH  079%=      5-min Rain = 0
KTUR 100135Z 24008KT 02/M01 A3035 RMK A01 T00221014  RH  078%=      5-min Rain = 0
KTUR 100140Z 24009KT 02/M02 A3035 RMK A01 T00231015  RH  077%=      5-min Rain = 0
KTUR 100145Z 24009KT 02/M01 A3035 RMK A01 T00231014  RH  078%=      5-min Rain = 0
KTUR 100150Z 23008KT 02/M01 A3035 RMK A01 T00201014  RH  079%=      5-min Rain = 0
KTUR 100155Z 23009KT 02/M02 A3034 RMK A01 T00171015  RH  081%=      5-min Rain = 0
KTUR 100200Z 23009KT 02/M02 A3034 RMK A01 T00161015  RH  080%=      5-min Rain = 0
KTUR 100205Z 23009KT 01/M02 A3034 RMK A01 T00141016  RH  081%=      5-min Rain = 0
KTUR 100210Z 23010KT 01/M02 A3035 RMK A01 T00121016  RH  083%=      5-min Rain = 0
KTUR 100215Z 24011KT 01/M02 A3035 RMK A01 T00131016  RH  082%=      5-min Rain = 0
KTUR 100220Z 24010KT 02/M02 A3035 RMK A01 T00161016  RH  080%=      5-min Rain = 0
KTUR 100225Z 24010KT 02/M02 A3035 RMK A01 T00181016  RH  079%=      5-min Rain = 0
KTUR 100230Z 24010KT 02/M02 A3035 RMK A01 T00191015  RH  079%=      5-min Rain = 0
KTUR 100235Z 24009KT 02/M02 A3035 RMK A01 T00201015  RH  079%=      5-min Rain = 0
KTUR 100240Z 24009KT 02/M02 A3035 RMK A01 T00191016  RH  079%=      5-min Rain = 0
KTUR 100245Z 24008KT 02/M02 A3035 RMK A01 T00161016  RH  081%=      5-min Rain = 0
KTUR 100250Z 24008KT 01/M02 A3036 RMK A01 T00131016  RH  082%=      5-min Rain = 0
KTUR 100255Z 24008KT 01/M02 A3035 RMK A01 T00111016  RH  083%=      5-min Rain = 0
KTUR 100300Z 24008KT 01/M02 A3035 RMK A01 T00111017  RH  083%=      5-min Rain = 0
KTUR 100305Z 24008KT 01/M02 A3035 RMK A01 T00111017  RH  083%=      5-min Rain = 0
KTUR 100310Z 24008KT 01/M02 A3036 RMK A01 T00111017  RH  082%=      5-min Rain = 0
KTUR 100315Z 24008KT 01/M02 A3036 RMK A01 T00101018  RH  083%=      5-min Rain = 0
KTUR 100320Z 23009KT 01/M02 A3036 RMK A01 T00101018  RH  083%=      5-min Rain = 0
KTUR 100325Z 23009KT 01/M02 A3036 RMK A01 T00071018  RH  084%=      5-min Rain = 0
KTUR 100330Z 23009KT 01/M02 A3035 RMK A01 T00061018  RH  085%=      5-min Rain = 0
KTUR 100335Z 23009KT 01/M02 A3036 RMK A01 T00071018  RH  084%=      5-min Rain = 0
KTUR 100340Z 24009KT 01/M02 A3036 RMK A01 T00061019  RH  085%=      5-min Rain = 0
KTUR 100345Z 23008KT 00/M02 A3036 RMK A01 T00041019  RH  086%=      5-min Rain = 0
KTUR 100350Z 23008KT 00/M02 A3036 RMK A01 T00041019  RH  086%=      5-min Rain = 0
KTUR 100355Z 23009KT 01/M02 A3035 RMK A01 T00061019  RH  084%=      5-min Rain = 0
KTUR 100400Z 23008KT 01/M02 A3035 RMK A01 T00081018  RH  084%=      5-min Rain = 0
KTUR 100405Z 23008KT 01/M02 A3035 RMK A01 T00071018  RH  084%=      5-min Rain = 0
KTUR 100410Z 23008KT 01/M02 A3035 RMK A01 T00071019  RH  084%=      5-min Rain = 0
KTUR 100415Z 23009KT 01/M02 A3035 RMK A01 T00061020  RH  084%=      5-min Rain = 0
KTUR 100420Z 23010KT 01/M02 A3035 RMK A01 T00071020  RH  083%=      5-min Rain = 0
KTUR 100425Z 24010KT 01/M02 A3035 RMK A01 T00101019  RH  082%=      5-min Rain = 0
KTUR 100430Z 24009KT 01/M02 A3035 RMK A01 T00141020  RH  079%=      5-min Rain = 0
KTUR 100435Z 24009KT 01/M02 A3035 RMK A01 T00121020  RH  080%=      5-min Rain = 0
KTUR 100440Z 25009KT 01/M02 A3035 RMK A01 T00121020  RH  080%=      5-min Rain = 0
KTUR 100445Z 24010KT 02/M02 A3035 RMK A01 T00151020  RH  079%=      5-min Rain = 0
KTUR 100450Z 24010KT 01/M02 A3035 RMK A01 T00141020  RH  079%=      5-min Rain = 0
KTUR 100455Z 24009KT 01/M02 A3035 RMK A01 T00131020  RH  079%=      5-min Rain = 0
KTUR 100500Z 23009KT 01/M02 A3036 RMK A01 T00121020  RH  080%=      5-min Rain = 0
KTUR 100505Z 24010KT 01/M02 A3036 RMK A01 T00121020  RH  080%=      5-min Rain = 0
KTUR 100510Z 24010KT 01/M02 A3036 RMK A01 T00141021  RH  078%=      5-min Rain = 0
KTUR 100515Z 24010KT 01/M02 A3035 RMK A01 T00141020  RH  079%=      5-min Rain = 0
KTUR 100520Z 24010KT 01/M02 A3035 RMK A01 T00131020  RH  079%=      5-min Rain = 0
KTUR 100525Z 24010KT 01/M02 A3035 RMK A01 T00121020  RH  080%=      5-min Rain = 0
KTUR 100530Z 24009KT 01/M02 A3035 RMK A01 T00121020  RH  080%=      5-min Rain = 0
KTUR 100535Z 24010KT 01/M02 A3035 RMK A01 T00121020  RH  080%=      5-min Rain = 0
KTUR 100540Z 24009KT 01/M02 A3035 RMK A01 T00111020  RH  080%=      5-min Rain = 0
KTUR 100545Z 24009KT 01/M02 A3035 RMK A01 T00101021  RH  081%=      5-min Rain = 0
KTUR 100550Z 23009KT 01/M02 A3035 RMK A01 T00081020  RH  082%=      5-min Rain = 0
KTUR 100555Z 23009KT 01/M02 A3035 RMK A01 T00081020  RH  082%=      5-min Rain = 0

Page generated in 0.0154 seconds.